sensor_id;sensor_type;location;lat;lon;timestamp;P1;durP1;ratioP1;P2;durP2;ratioP2
17991;SDS011;9121;50.926;5.340;2023-08-17T00:01:32;9.48;;;5.35;;
17991;SDS011;9121;50.926;5.340;2023-08-17T00:04:00;11.02;;;5.90;;
17991;SDS011;9121;50.926;5.340;2023-08-17T00:06:27;7.70;;;4.88;;
17991;SDS011;9121;50.926;5.340;2023-08-17T00:08:54;11.25;;;5.32;;
17991;SDS011;9121;50.926;5.340;2023-08-17T00:11:21;7.50;;;5.03;;
17991;SDS011;9121;50.926;5.340;2023-08-17T00:13:48;8.65;;;4.93;;
17991;SDS011;9121;50.926;5.340;2023-08-17T00:16:15;10.13;;;5.20;;
17991;SDS011;9121;50.926;5.340;2023-08-17T00:18:42;7.53;;;5.13;;
17991;SDS011;9121;50.926;5.340;2023-08-17T00:21:11;6.93;;;5.18;;
17991;SDS011;9121;50.926;5.340;2023-08-17T00:23:38;11.55;;;5.00;;
17991;SDS011;9121;50.926;5.340;2023-08-17T00:26:05;8.20;;;4.80;;
17991;SDS011;9121;50.926;5.340;2023-08-17T00:28:32;7.78;;;5.10;;
17991;SDS011;9121;50.926;5.340;2023-08-17T00:30:59;6.45;;;4.68;;
17991;SDS011;9121;50.926;5.340;2023-08-17T00:33:26;6.60;;;5.03;;
17991;SDS011;9121;50.926;5.340;2023-08-17T00:35:54;6.93;;;4.78;;
17991;SDS011;9121;50.926;5.340;2023-08-17T00:38:22;7.72;;;4.60;;
17991;SDS011;9121;50.926;5.340;2023-08-17T00:40:49;8.88;;;4.88;;
17991;SDS011;9121;50.926;5.340;2023-08-17T00:43:16;6.38;;;4.85;;
17991;SDS011;9121;50.926;5.340;2023-08-17T00:45:43;7.60;;;4.47;;
17991;SDS011;9121;50.926;5.340;2023-08-17T00:48:12;5.75;;;4.43;;
17991;SDS011;9121;50.926;5.340;2023-08-17T00:50:40;6.85;;;4.93;;
17991;SDS011;9121;50.926;5.340;2023-08-17T00:53:07;6.63;;;4.65;;
17991;SDS011;9121;50.926;5.340;2023-08-17T00:55:39;7.10;;;4.70;;
17991;SDS011;9121;50.926;5.340;2023-08-17T00:58:06;8.68;;;4.35;;
17991;SDS011;9121;50.926;5.340;2023-08-17T01:00:34;11.02;;;4.68;;
17991;SDS011;9121;50.926;5.340;2023-08-17T01:03:01;8.43;;;4.72;;
17991;SDS011;9121;50.926;5.340;2023-08-17T01:05:28;6.05;;;4.70;;
17991;SDS011;9121;50.926;5.340;2023-08-17T01:07:57;6.35;;;4.63;;
17991;SDS011;9121;50.926;5.340;2023-08-17T01:10:25;12.85;;;4.93;;
17991;SDS011;9121;50.926;5.340;2023-08-17T01:13:02;7.38;;;4.72;;
17991;SDS011;9121;50.926;5.340;2023-08-17T01:15:36;7.22;;;4.32;;
17991;SDS011;9121;50.926;5.340;2023-08-17T01:18:07;5.38;;;4.45;;
17991;SDS011;9121;50.926;5.340;2023-08-17T01:20:42;7.78;;;4.75;;
17991;SDS011;9121;50.926;5.340;2023-08-17T01:23:11;8.52;;;4.70;;
17991;SDS011;9121;50.926;5.340;2023-08-17T01:25:38;7.13;;;4.78;;
17991;SDS011;9121;50.926;5.340;2023-08-17T01:28:05;9.30;;;4.80;;
17991;SDS011;9121;50.926;5.340;2023-08-17T01:30:33;7.40;;;4.90;;
17991;SDS011;9121;50.926;5.340;2023-08-17T01:33:06;7.35;;;4.95;;
17991;SDS011;9121;50.926;5.340;2023-08-17T01:35:37;5.78;;;4.43;;
17991;SDS011;9121;50.926;5.340;2023-08-17T01:38:12;7.35;;;4.68;;
17991;SDS011;9121;50.926;5.340;2023-08-17T01:40:44;8.32;;;4.22;;
17991;SDS011;9121;50.926;5.340;2023-08-17T01:43:11;5.95;;;4.75;;
17991;SDS011;9121;50.926;5.340;2023-08-17T01:45:39;5.57;;;4.15;;
17991;SDS011;9121;50.926;5.340;2023-08-17T01:48:06;6.22;;;4.35;;
17991;SDS011;9121;50.926;5.340;2023-08-17T01:50:33;10.88;;;4.50;;
17991;SDS011;9121;50.926;5.340;2023-08-17T01:53:00;16.60;;;4.47;;
17991;SDS011;9121;50.926;5.340;2023-08-17T01:55:29;13.55;;;4.78;;
17991;SDS011;9121;50.926;5.340;2023-08-17T01:57:55;6.78;;;4.32;;
17991;SDS011;9121;50.926;5.340;2023-08-17T02:00:22;7.22;;;4.63;;
17991;SDS011;9121;50.926;5.340;2023-08-17T02:02:49;8.98;;;4.80;;
17991;SDS011;9121;50.926;5.340;2023-08-17T02:05:16;5.47;;;4.13;;
17991;SDS011;9121;50.926;5.340;2023-08-17T02:07:43;8.57;;;4.63;;
17991;SDS011;9121;50.926;5.340;2023-08-17T02:10:10;7.28;;;4.18;;
17991;SDS011;9121;50.926;5.340;2023-08-17T02:12:38;7.32;;;3.90;;
17991;SDS011;9121;50.926;5.340;2023-08-17T02:15:06;9.38;;;4.22;;
17991;SDS011;9121;50.926;5.340;2023-08-17T02:17:33;8.35;;;3.97;;
17991;SDS011;9121;50.926;5.340;2023-08-17T02:20:00;9.80;;;4.07;;
17991;SDS011;9121;50.926;5.340;2023-08-17T02:22:29;6.93;;;4.28;;
17991;SDS011;9121;50.926;5.340;2023-08-17T02:24:56;7.82;;;3.83;;
17991;SDS011;9121;50.926;5.340;2023-08-17T02:27:23;9.38;;;4.35;;
17991;SDS011;9121;50.926;5.340;2023-08-17T02:29:51;6.38;;;4.68;;
17991;SDS011;9121;50.926;5.340;2023-08-17T02:32:18;6.10;;;4.38;;
17991;SDS011;9121;50.926;5.340;2023-08-17T02:34:45;11.02;;;4.50;;
17991;SDS011;9121;50.926;5.340;2023-08-17T02:37:12;9.57;;;4.55;;
17991;SDS011;9121;50.926;5.340;2023-08-17T02:39:39;7.80;;;4.40;;
17991;SDS011;9121;50.926;5.340;2023-08-17T02:42:06;7.47;;;4.45;;
17991;SDS011;9121;50.926;5.340;2023-08-17T02:44:33;7.03;;;4.15;;
17991;SDS011;9121;50.926;5.340;2023-08-17T02:47:01;5.10;;;4.18;;
17991;SDS011;9121;50.926;5.340;2023-08-17T02:49:28;14.07;;;5.30;;
17991;SDS011;9121;50.926;5.340;2023-08-17T02:51:55;6.93;;;4.18;;
17991;SDS011;9121;50.926;5.340;2023-08-17T02:54:22;7.78;;;4.70;;
17991;SDS011;9121;50.926;5.340;2023-08-17T02:56:49;5.72;;;4.07;;
17991;SDS011;9121;50.926;5.340;2023-08-17T02:59:16;9.07;;;4.82;;
17991;SDS011;9121;50.926;5.340;2023-08-17T03:01:44;7.55;;;4.10;;
17991;SDS011;9121;50.926;5.340;2023-08-17T03:04:13;7.22;;;3.95;;
17991;SDS011;9121;50.926;5.340;2023-08-17T03:06:40;8.40;;;4.10;;
17991;SDS011;9121;50.926;5.340;2023-08-17T03:09:07;7.93;;;4.10;;
17991;SDS011;9121;50.926;5.340;2023-08-17T03:11:34;8.05;;;4.30;;
17991;SDS011;9121;50.926;5.340;2023-08-17T03:14:01;7.63;;;4.40;;
17991;SDS011;9121;50.926;5.340;2023-08-17T03:16:29;8.88;;;4.63;;
17991;SDS011;9121;50.926;5.340;2023-08-17T03:18:56;11.02;;;4.65;;
17991;SDS011;9121;50.926;5.340;2023-08-17T03:21:24;5.70;;;4.13;;
17991;SDS011;9121;50.926;5.340;2023-08-17T03:23:51;5.95;;;4.22;;
17991;SDS011;9121;50.926;5.340;2023-08-17T03:26:18;5.68;;;4.30;;
17991;SDS011;9121;50.926;5.340;2023-08-17T03:28:45;8.93;;;4.57;;
17991;SDS011;9121;50.926;5.340;2023-08-17T03:31:12;10.88;;;5.07;;
17991;SDS011;9121;50.926;5.340;2023-08-17T03:33:39;7.30;;;5.10;;
17991;SDS011;9121;50.926;5.340;2023-08-17T03:36:06;6.13;;;4.75;;
17991;SDS011;9121;50.926;5.340;2023-08-17T03:38:35;10.63;;;4.40;;
17991;SDS011;9121;50.926;5.340;2023-08-17T03:41:04;7.25;;;4.63;;
17991;SDS011;9121;50.926;5.340;2023-08-17T03:43:31;7.65;;;4.72;;
17991;SDS011;9121;50.926;5.340;2023-08-17T03:45:57;9.70;;;5.18;;
17991;SDS011;9121;50.926;5.340;2023-08-17T03:48:24;9.23;;;5.38;;
17991;SDS011;9121;50.926;5.340;2023-08-17T03:50:51;10.07;;;5.68;;
17991;SDS011;9121;50.926;5.340;2023-08-17T03:53:19;9.45;;;5.63;;
17991;SDS011;9121;50.926;5.340;2023-08-17T03:55:47;9.38;;;5.82;;
17991;SDS011;9121;50.926;5.340;2023-08-17T03:58:15;9.40;;;5.90;;
17991;SDS011;9121;50.926;5.340;2023-08-17T04:00:42;10.88;;;5.80;;
17991;SDS011;9121;50.926;5.340;2023-08-17T04:03:14;8.65;;;6.15;;
17991;SDS011;9121;50.926;5.340;2023-08-17T04:05:41;8.95;;;5.85;;
17991;SDS011;9121;50.926;5.340;2023-08-17T04:08:08;13.07;;;6.97;;
17991;SDS011;9121;50.926;5.340;2023-08-17T04:10:35;13.27;;;6.32;;
17991;SDS011;9121;50.926;5.340;2023-08-17T04:13:03;12.10;;;6.40;;
17991;SDS011;9121;50.926;5.340;2023-08-17T04:15:30;13.57;;;5.50;;
17991;SDS011;9121;50.926;5.340;2023-08-17T04:17:57;10.48;;;6.18;;
17991;SDS011;9121;50.926;5.340;2023-08-17T04:20:24;12.02;;;7.05;;
17991;SDS011;9121;50.926;5.340;2023-08-17T04:22:51;14.15;;;7.35;;
17991;SDS011;9121;50.926;5.340;2023-08-17T04:25:18;18.27;;;7.68;;
17991;SDS011;9121;50.926;5.340;2023-08-17T04:27:45;14.25;;;7.18;;
17991;SDS011;9121;50.926;5.340;2023-08-17T04:30:14;14.25;;;7.47;;
17991;SDS011;9121;50.926;5.340;2023-08-17T04:32:40;11.82;;;7.30;;
17991;SDS011;9121;50.926;5.340;2023-08-17T04:35:08;12.57;;;7.20;;
17991;SDS011;9121;50.926;5.340;2023-08-17T04:37:36;13.15;;;7.25;;
17991;SDS011;9121;50.926;5.340;2023-08-17T04:40:03;18.10;;;6.80;;
17991;SDS011;9121;50.926;5.340;2023-08-17T04:42:30;11.55;;;7.40;;
17991;SDS011;9121;50.926;5.340;2023-08-17T04:44:57;23.95;;;7.10;;
17991;SDS011;9121;50.926;5.340;2023-08-17T04:47:26;19.00;;;6.53;;
17991;SDS011;9121;50.926;5.340;2023-08-17T04:49:53;12.88;;;6.50;;
17991;SDS011;9121;50.926;5.340;2023-08-17T04:52:19;12.68;;;5.80;;
17991;SDS011;9121;50.926;5.340;2023-08-17T04:54:46;8.77;;;6.63;;
17991;SDS011;9121;50.926;5.340;2023-08-17T04:57:13;10.05;;;5.22;;
17991;SDS011;9121;50.926;5.340;2023-08-17T04:59:40;7.78;;;5.35;;
17991;SDS011;9121;50.926;5.340;2023-08-17T05:02:07;11.70;;;5.20;;
17991;SDS011;9121;50.926;5.340;2023-08-17T05:04:36;31.63;;;6.15;;
17991;SDS011;9121;50.926;5.340;2023-08-17T05:07:04;11.38;;;5.18;;
17991;SDS011;9121;50.926;5.340;2023-08-17T05:09:31;9.93;;;5.35;;
17991;SDS011;9121;50.926;5.340;2023-08-17T05:11:57;11.20;;;4.68;;
17991;SDS011;9121;50.926;5.340;2023-08-17T05:14:24;7.45;;;4.95;;
17991;SDS011;9121;50.926;5.340;2023-08-17T05:16:51;7.22;;;5.57;;
17991;SDS011;9121;50.926;5.340;2023-08-17T05:19:18;9.05;;;5.20;;
17991;SDS011;9121;50.926;5.340;2023-08-17T05:21:46;7.90;;;4.90;;
17991;SDS011;9121;50.926;5.340;2023-08-17T05:24:15;9.38;;;5.10;;
17991;SDS011;9121;50.926;5.340;2023-08-17T05:26:43;11.10;;;4.75;;
17991;SDS011;9121;50.926;5.340;2023-08-17T05:29:10;8.98;;;4.68;;
17991;SDS011;9121;50.926;5.340;2023-08-17T05:31:37;15.15;;;4.82;;
17991;SDS011;9121;50.926;5.340;2023-08-17T05:34:04;6.43;;;4.45;;
17991;SDS011;9121;50.926;5.340;2023-08-17T05:36:31;9.45;;;5.03;;
17991;SDS011;9121;50.926;5.340;2023-08-17T05:38:59;7.30;;;4.63;;
17991;SDS011;9121;50.926;5.340;2023-08-17T05:41:26;10.23;;;4.75;;
17991;SDS011;9121;50.926;5.340;2023-08-17T05:43:53;8.90;;;5.18;;
17991;SDS011;9121;50.926;5.340;2023-08-17T05:46:20;9.60;;;4.70;;
17991;SDS011;9121;50.926;5.340;2023-08-17T05:48:47;12.02;;;5.20;;
17991;SDS011;9121;50.926;5.340;2023-08-17T05:51:14;12.70;;;5.50;;
17991;SDS011;9121;50.926;5.340;2023-08-17T05:53:41;9.77;;;4.50;;
17991;SDS011;9121;50.926;5.340;2023-08-17T05:56:09;7.10;;;4.57;;
17991;SDS011;9121;50.926;5.340;2023-08-17T05:58:36;9.63;;;4.50;;
17991;SDS011;9121;50.926;5.340;2023-08-17T06:01:04;8.02;;;4.53;;
17991;SDS011;9121;50.926;5.340;2023-08-17T06:03:32;13.68;;;5.03;;
17991;SDS011;9121;50.926;5.340;2023-08-17T06:05:59;12.48;;;4.95;;
17991;SDS011;9121;50.926;5.340;2023-08-17T06:08:26;10.60;;;4.70;;
17991;SDS011;9121;50.926;5.340;2023-08-17T06:10:53;10.95;;;4.78;;
17991;SDS011;9121;50.926;5.340;2023-08-17T06:13:22;10.32;;;5.43;;
17991;SDS011;9121;50.926;5.340;2023-08-17T06:15:49;25.65;;;6.65;;
17991;SDS011;9121;50.926;5.340;2023-08-17T06:18:16;8.63;;;5.93;;
17991;SDS011;9121;50.926;5.340;2023-08-17T06:20:43;15.10;;;6.18;;
17991;SDS011;9121;50.926;5.340;2023-08-17T06:23:11;11.20;;;5.60;;
17991;SDS011;9121;50.926;5.340;2023-08-17T06:25:38;8.55;;;5.00;;
17991;SDS011;9121;50.926;5.340;2023-08-17T06:28:05;11.18;;;5.28;;
17991;SDS011;9121;50.926;5.340;2023-08-17T06:30:34;23.50;;;6.65;;
17991;SDS011;9121;50.926;5.340;2023-08-17T06:33:01;12.73;;;6.05;;
17991;SDS011;9121;50.926;5.340;2023-08-17T06:35:28;14.98;;;6.53;;
17991;SDS011;9121;50.926;5.340;2023-08-17T06:37:55;15.68;;;6.90;;
17991;SDS011;9121;50.926;5.340;2023-08-17T06:40:23;18.23;;;7.78;;
17991;SDS011;9121;50.926;5.340;2023-08-17T06:42:50;18.75;;;7.57;;
17991;SDS011;9121;50.926;5.340;2023-08-17T06:45:17;15.77;;;6.90;;
17991;SDS011;9121;50.926;5.340;2023-08-17T06:47:46;13.48;;;8.00;;
17991;SDS011;9121;50.926;5.340;2023-08-17T06:50:13;18.73;;;8.10;;
17991;SDS011;9121;50.926;5.340;2023-08-17T06:52:40;18.58;;;8.90;;
17991;SDS011;9121;50.926;5.340;2023-08-17T06:55:08;20.92;;;10.57;;
17991;SDS011;9121;50.926;5.340;2023-08-17T06:57:35;19.02;;;10.05;;
17991;SDS011;9121;50.926;5.340;2023-08-17T07:00:03;19.98;;;9.70;;
17991;SDS011;9121;50.926;5.340;2023-08-17T07:02:31;24.83;;;10.40;;
17991;SDS011;9121;50.926;5.340;2023-08-17T07:05:00;26.45;;;11.55;;
17991;SDS011;9121;50.926;5.340;2023-08-17T07:07:28;22.67;;;11.68;;
17991;SDS011;9121;50.926;5.340;2023-08-17T07:09:56;24.80;;;11.65;;
17991;SDS011;9121;50.926;5.340;2023-08-17T07:12:23;26.10;;;12.82;;
17991;SDS011;9121;50.926;5.340;2023-08-17T07:14:50;31.20;;;14.27;;
17991;SDS011;9121;50.926;5.340;2023-08-17T07:17:17;25.65;;;11.63;;
17991;SDS011;9121;50.926;5.340;2023-08-17T07:19:44;30.20;;;13.90;;
17991;SDS011;9121;50.926;5.340;2023-08-17T07:22:12;30.52;;;12.65;;
17991;SDS011;9121;50.926;5.340;2023-08-17T07:24:41;26.48;;;13.35;;
17991;SDS011;9121;50.926;5.340;2023-08-17T07:27:08;29.05;;;13.77;;
17991;SDS011;9121;50.926;5.340;2023-08-17T07:29:35;24.00;;;12.60;;
17991;SDS011;9121;50.926;5.340;2023-08-17T07:32:02;32.25;;;15.55;;
17991;SDS011;9121;50.926;5.340;2023-08-17T07:34:29;34.47;;;15.52;;
17991;SDS011;9121;50.926;5.340;2023-08-17T07:36:56;37.72;;;16.90;;
17991;SDS011;9121;50.926;5.340;2023-08-17T07:39:25;40.08;;;16.98;;
17991;SDS011;9121;50.926;5.340;2023-08-17T07:41:52;35.58;;;17.40;;
17991;SDS011;9121;50.926;5.340;2023-08-17T07:44:19;35.55;;;16.92;;
17991;SDS011;9121;50.926;5.340;2023-08-17T07:46:46;37.63;;;17.08;;
17991;SDS011;9121;50.926;5.340;2023-08-17T07:49:12;32.90;;;17.90;;
17991;SDS011;9121;50.926;5.340;2023-08-17T07:51:39;44.50;;;16.98;;
17991;SDS011;9121;50.926;5.340;2023-08-17T07:54:06;37.13;;;16.77;;
17991;SDS011;9121;50.926;5.340;2023-08-17T07:56:35;67.00;;;18.98;;
17991;SDS011;9121;50.926;5.340;2023-08-17T07:59:02;35.83;;;17.75;;
17991;SDS011;9121;50.926;5.340;2023-08-17T08:01:29;31.25;;;17.10;;
17991;SDS011;9121;50.926;5.340;2023-08-17T08:03:56;33.95;;;17.20;;
17991;SDS011;9121;50.926;5.340;2023-08-17T08:06:23;36.53;;;18.73;;
17991;SDS011;9121;50.926;5.340;2023-08-17T08:08:50;32.67;;;16.67;;
17991;SDS011;9121;50.926;5.340;2023-08-17T08:11:17;56.47;;;18.40;;
17991;SDS011;9121;50.926;5.340;2023-08-17T08:13:45;36.60;;;18.38;;
17991;SDS011;9121;50.926;5.340;2023-08-17T08:16:12;33.50;;;16.27;;
17991;SDS011;9121;50.926;5.340;2023-08-17T08:18:39;27.33;;;14.30;;
17991;SDS011;9121;50.926;5.340;2023-08-17T08:21:06;27.75;;;14.13;;
17991;SDS011;9121;50.926;5.340;2023-08-17T08:23:33;29.42;;;14.05;;
17991;SDS011;9121;50.926;5.340;2023-08-17T08:26:00;24.48;;;13.20;;
17991;SDS011;9121;50.926;5.340;2023-08-17T08:28:27;36.10;;;16.42;;
17991;SDS011;9121;50.926;5.340;2023-08-17T08:30:59;33.70;;;16.80;;
17991;SDS011;9121;50.926;5.340;2023-08-17T08:33:27;31.45;;;15.18;;
17991;SDS011;9121;50.926;5.340;2023-08-17T08:35:54;31.85;;;13.98;;
17991;SDS011;9121;50.926;5.340;2023-08-17T08:38:21;26.90;;;14.55;;
17991;SDS011;9121;50.926;5.340;2023-08-17T08:40:48;29.02;;;15.00;;
17991;SDS011;9121;50.926;5.340;2023-08-17T08:43:15;30.77;;;14.80;;
17991;SDS011;9121;50.926;5.340;2023-08-17T08:45:43;31.38;;;15.30;;
17991;SDS011;9121;50.926;5.340;2023-08-17T08:48:12;38.78;;;15.13;;
17991;SDS011;9121;50.926;5.340;2023-08-17T08:50:41;34.30;;;17.23;;
17991;SDS011;9121;50.926;5.340;2023-08-17T08:53:10;36.78;;;17.17;;
17991;SDS011;9121;50.926;5.340;2023-08-17T08:55:41;32.75;;;17.17;;
17991;SDS011;9121;50.926;5.340;2023-08-17T08:58:15;44.58;;;19.02;;
17991;SDS011;9121;50.926;5.340;2023-08-17T09:00:45;40.83;;;18.48;;
17991;SDS011;9121;50.926;5.340;2023-08-17T09:03:14;37.05;;;18.95;;
17991;SDS011;9121;50.926;5.340;2023-08-17T09:05:42;38.83;;;18.05;;
17991;SDS011;9121;50.926;5.340;2023-08-17T09:08:12;41.17;;;20.35;;
17991;SDS011;9121;50.926;5.340;2023-08-17T09:10:41;37.40;;;18.95;;
17991;SDS011;9121;50.926;5.340;2023-08-17T09:13:08;38.75;;;18.63;;
17991;SDS011;9121;50.926;5.340;2023-08-17T09:15:35;38.90;;;18.85;;
17991;SDS011;9121;50.926;5.340;2023-08-17T09:18:03;31.00;;;18.63;;
17991;SDS011;9121;50.926;5.340;2023-08-17T09:20:37;41.03;;;19.33;;
17991;SDS011;9121;50.926;5.340;2023-08-17T09:23:09;26.15;;;17.88;;
17991;SDS011;9121;50.926;5.340;2023-08-17T09:25:38;27.75;;;18.58;;
17991;SDS011;9121;50.926;5.340;2023-08-17T09:28:06;32.17;;;19.33;;
17991;SDS011;9121;50.926;5.340;2023-08-17T09:30:48;34.03;;;18.38;;
17991;SDS011;9121;50.926;5.340;2023-08-17T09:33:16;30.70;;;18.92;;
17991;SDS011;9121;50.926;5.340;2023-08-17T09:35:45;28.77;;;18.63;;
17991;SDS011;9121;50.926;5.340;2023-08-17T09:38:12;45.50;;;19.27;;
17991;SDS011;9121;50.926;5.340;2023-08-17T09:40:39;28.10;;;17.73;;
17991;SDS011;9121;50.926;5.340;2023-08-17T09:43:06;27.00;;;17.98;;
17991;SDS011;9121;50.926;5.340;2023-08-17T09:45:33;28.33;;;18.98;;
17991;SDS011;9121;50.926;5.340;2023-08-17T09:48:00;26.50;;;19.20;;
17991;SDS011;9121;50.926;5.340;2023-08-17T09:50:27;26.98;;;20.42;;
17991;SDS011;9121;50.926;5.340;2023-08-17T09:52:55;35.83;;;21.52;;
17991;SDS011;9121;50.926;5.340;2023-08-17T09:55:23;30.17;;;21.08;;
17991;SDS011;9121;50.926;5.340;2023-08-17T09:57:50;30.92;;;21.38;;
17991;SDS011;9121;50.926;5.340;2023-08-17T10:00:19;30.75;;;19.20;;
17991;SDS011;9121;50.926;5.340;2023-08-17T10:02:47;27.63;;;20.48;;
17991;SDS011;9121;50.926;5.340;2023-08-17T10:05:17;30.80;;;21.63;;
17991;SDS011;9121;50.926;5.340;2023-08-17T10:07:46;33.22;;;21.65;;
17991;SDS011;9121;50.926;5.340;2023-08-17T10:10:21;32.00;;;21.45;;
17991;SDS011;9121;50.926;5.340;2023-08-17T10:12:53;33.20;;;20.75;;
17991;SDS011;9121;50.926;5.340;2023-08-17T10:15:32;43.60;;;21.50;;
17991;SDS011;9121;50.926;5.340;2023-08-17T10:18:06;32.42;;;21.88;;
17991;SDS011;9121;50.926;5.340;2023-08-17T10:20:39;35.45;;;22.73;;
17991;SDS011;9121;50.926;5.340;2023-08-17T10:23:13;31.15;;;21.42;;
17991;SDS011;9121;50.926;5.340;2023-08-17T10:25:44;34.03;;;22.73;;
17991;SDS011;9121;50.926;5.340;2023-08-17T10:28:11;34.30;;;23.58;;
17991;SDS011;9121;50.926;5.340;2023-08-17T10:30:39;35.22;;;23.17;;
17991;SDS011;9121;50.926;5.340;2023-08-17T10:33:06;35.40;;;23.42;;
17991;SDS011;9121;50.926;5.340;2023-08-17T10:35:35;33.58;;;23.48;;
17991;SDS011;9121;50.926;5.340;2023-08-17T10:38:02;35.58;;;23.73;;
17991;SDS011;9121;50.926;5.340;2023-08-17T10:40:34;38.92;;;22.50;;
17991;SDS011;9121;50.926;5.340;2023-08-17T10:43:04;34.42;;;23.00;;
17991;SDS011;9121;50.926;5.340;2023-08-17T10:45:31;31.27;;;21.20;;
17991;SDS011;9121;50.926;5.340;2023-08-17T10:51:04;32.92;;;22.95;;
17991;SDS011;9121;50.926;5.340;2023-08-17T10:53:35;35.50;;;23.55;;
17991;SDS011;9121;50.926;5.340;2023-08-17T10:56:06;29.85;;;20.60;;
17991;SDS011;9121;50.926;5.340;2023-08-17T10:58:36;31.65;;;21.40;;
17991;SDS011;9121;50.926;5.340;2023-08-17T11:01:03;32.03;;;21.45;;
17991;SDS011;9121;50.926;5.340;2023-08-17T11:03:30;34.50;;;22.45;;
17991;SDS011;9121;50.926;5.340;2023-08-17T11:05:58;38.22;;;23.08;;
17991;SDS011;9121;50.926;5.340;2023-08-17T11:08:50;35.22;;;21.27;;
17991;SDS011;9121;50.926;5.340;2023-08-17T11:11:19;30.80;;;21.13;;
17991;SDS011;9121;50.926;5.340;2023-08-17T11:13:48;48.95;;;22.50;;
17991;SDS011;9121;50.926;5.340;2023-08-17T11:16:16;32.13;;;20.90;;
17991;SDS011;9121;50.926;5.340;2023-08-17T11:18:44;33.38;;;21.83;;
17991;SDS011;9121;50.926;5.340;2023-08-17T11:21:12;40.53;;;23.58;;
17991;SDS011;9121;50.926;5.340;2023-08-17T11:23:40;36.80;;;22.40;;
17991;SDS011;9121;50.926;5.340;2023-08-17T11:26:07;32.85;;;20.67;;
17991;SDS011;9121;50.926;5.340;2023-08-17T11:28:35;30.02;;;20.92;;
17991;SDS011;9121;50.926;5.340;2023-08-17T11:31:05;32.88;;;21.63;;
17991;SDS011;9121;50.926;5.340;2023-08-17T11:33:34;26.98;;;20.42;;
17991;SDS011;9121;50.926;5.340;2023-08-17T11:36:03;34.17;;;20.67;;
17991;SDS011;9121;50.926;5.340;2023-08-17T11:38:32;28.98;;;20.75;;
17991;SDS011;9121;50.926;5.340;2023-08-17T11:41:00;34.50;;;22.30;;
17991;SDS011;9121;50.926;5.340;2023-08-17T11:43:28;38.15;;;22.17;;
17991;SDS011;9121;50.926;5.340;2023-08-17T11:45:55;47.40;;;21.35;;
17991;SDS011;9121;50.926;5.340;2023-08-17T11:48:24;33.10;;;21.17;;
17991;SDS011;9121;50.926;5.340;2023-08-17T11:50:51;42.10;;;22.95;;
17991;SDS011;9121;50.926;5.340;2023-08-17T11:53:19;38.80;;;24.08;;
17991;SDS011;9121;50.926;5.340;2023-08-17T11:55:46;42.25;;;24.05;;
17991;SDS011;9121;50.926;5.340;2023-08-17T11:58:13;36.78;;;22.55;;
17991;SDS011;9121;50.926;5.340;2023-08-17T12:00:41;45.22;;;21.83;;
17991;SDS011;9121;50.926;5.340;2023-08-17T12:03:12;34.05;;;21.67;;
17991;SDS011;9121;50.926;5.340;2023-08-17T12:05:42;38.90;;;21.00;;
17991;SDS011;9121;50.926;5.340;2023-08-17T12:08:10;38.22;;;23.98;;
17991;SDS011;9121;50.926;5.340;2023-08-17T12:10:39;44.25;;;24.98;;
17991;SDS011;9121;50.926;5.340;2023-08-17T12:13:10;38.92;;;23.92;;
17991;SDS011;9121;50.926;5.340;2023-08-17T12:15:37;37.47;;;23.92;;
17991;SDS011;9121;50.926;5.340;2023-08-17T12:18:05;39.15;;;24.95;;
17991;SDS011;9121;50.926;5.340;2023-08-17T12:20:32;40.90;;;23.80;;
17991;SDS011;9121;50.926;5.340;2023-08-17T12:23:03;40.15;;;25.40;;
17991;SDS011;9121;50.926;5.340;2023-08-17T12:25:30;38.55;;;23.95;;
17991;SDS011;9121;50.926;5.340;2023-08-17T12:27:58;33.47;;;22.35;;
17991;SDS011;9121;50.926;5.340;2023-08-17T12:30:26;42.97;;;24.75;;
17991;SDS011;9121;50.926;5.340;2023-08-17T12:32:56;45.85;;;24.60;;
17991;SDS011;9121;50.926;5.340;2023-08-17T12:35:23;44.03;;;25.17;;
17991;SDS011;9121;50.926;5.340;2023-08-17T12:37:51;45.72;;;25.65;;
17991;SDS011;9121;50.926;5.340;2023-08-17T12:40:19;52.47;;;26.58;;
17991;SDS011;9121;50.926;5.340;2023-08-17T12:42:47;37.25;;;24.95;;
17991;SDS011;9121;50.926;5.340;2023-08-17T12:45:14;39.60;;;25.20;;
17991;SDS011;9121;50.926;5.340;2023-08-17T12:47:42;39.75;;;25.02;;
17991;SDS011;9121;50.926;5.340;2023-08-17T12:50:09;34.67;;;24.02;;
17991;SDS011;9121;50.926;5.340;2023-08-17T12:52:36;53.20;;;23.83;;
17991;SDS011;9121;50.926;5.340;2023-08-17T12:55:03;32.92;;;22.92;;
17991;SDS011;9121;50.926;5.340;2023-08-17T12:57:32;31.60;;;21.45;;
17991;SDS011;9121;50.926;5.340;2023-08-17T12:59:59;37.28;;;20.92;;
17991;SDS011;9121;50.926;5.340;2023-08-17T13:02:26;31.88;;;19.83;;
17991;SDS011;9121;50.926;5.340;2023-08-17T13:04:53;32.35;;;21.20;;
17991;SDS011;9121;50.926;5.340;2023-08-17T13:07:20;31.67;;;21.88;;
17991;SDS011;9121;50.926;5.340;2023-08-17T13:09:47;33.47;;;21.67;;
17991;SDS011;9121;50.926;5.340;2023-08-17T13:12:14;38.97;;;21.70;;
17991;SDS011;9121;50.926;5.340;2023-08-17T13:14:42;31.13;;;20.55;;
17991;SDS011;9121;50.926;5.340;2023-08-17T13:17:09;34.20;;;20.20;;
17991;SDS011;9121;50.926;5.340;2023-08-17T13:19:36;32.08;;;19.00;;
17991;SDS011;9121;50.926;5.340;2023-08-17T13:22:03;39.47;;;24.60;;
17991;SDS011;9121;50.926;5.340;2023-08-17T13:24:30;29.38;;;19.10;;
17991;SDS011;9121;50.926;5.340;2023-08-17T13:26:57;25.92;;;19.25;;
17991;SDS011;9121;50.926;5.340;2023-08-17T13:29:24;32.42;;;19.45;;
17991;SDS011;9121;50.926;5.340;2023-08-17T13:31:52;31.80;;;19.38;;
17991;SDS011;9121;50.926;5.340;2023-08-17T13:34:19;33.78;;;20.35;;
17991;SDS011;9121;50.926;5.340;2023-08-17T13:36:46;33.97;;;19.58;;
17991;SDS011;9121;50.926;5.340;2023-08-17T13:39:13;27.60;;;17.02;;
17991;SDS011;9121;50.926;5.340;2023-08-17T13:41:41;29.00;;;18.42;;
17991;SDS011;9121;50.926;5.340;2023-08-17T13:44:08;29.35;;;18.25;;
17991;SDS011;9121;50.926;5.340;2023-08-17T13:46:35;28.92;;;17.48;;
17991;SDS011;9121;50.926;5.340;2023-08-17T13:49:04;30.42;;;18.63;;
17991;SDS011;9121;50.926;5.340;2023-08-17T13:51:31;30.33;;;19.05;;
17991;SDS011;9121;50.926;5.340;2023-08-17T13:53:58;30.35;;;19.42;;
17991;SDS011;9121;50.926;5.340;2023-08-17T13:56:25;38.28;;;19.40;;
17991;SDS011;9121;50.926;5.340;2023-08-17T13:58:52;30.00;;;19.17;;
17991;SDS011;9121;50.926;5.340;2023-08-17T14:01:19;35.30;;;20.92;;
17991;SDS011;9121;50.926;5.340;2023-08-17T14:03:46;59.33;;;20.10;;
17991;SDS011;9121;50.926;5.340;2023-08-17T14:06:14;35.42;;;18.95;;
17991;SDS011;9121;50.926;5.340;2023-08-17T14:08:42;40.25;;;18.92;;
17991;SDS011;9121;50.926;5.340;2023-08-17T14:11:09;31.90;;;19.42;;
17991;SDS011;9121;50.926;5.340;2023-08-17T14:13:36;36.28;;;19.85;;
17991;SDS011;9121;50.926;5.340;2023-08-17T14:16:04;30.60;;;18.55;;
17991;SDS011;9121;50.926;5.340;2023-08-17T14:18:31;32.15;;;20.98;;
17991;SDS011;9121;50.926;5.340;2023-08-17T14:20:58;38.53;;;21.83;;
17991;SDS011;9121;50.926;5.340;2023-08-17T14:23:27;31.98;;;20.40;;
17991;SDS011;9121;50.926;5.340;2023-08-17T14:25:54;30.85;;;19.30;;
17991;SDS011;9121;50.926;5.340;2023-08-17T14:28:21;29.80;;;20.30;;
17991;SDS011;9121;50.926;5.340;2023-08-17T14:30:48;33.85;;;20.05;;
17991;SDS011;9121;50.926;5.340;2023-08-17T14:33:15;31.83;;;22.20;;
17991;SDS011;9121;50.926;5.340;2023-08-17T14:35:42;34.22;;;21.48;;
17991;SDS011;9121;50.926;5.340;2023-08-17T14:38:09;33.85;;;21.27;;
17991;SDS011;9121;50.926;5.340;2023-08-17T14:40:41;31.92;;;20.77;;
17991;SDS011;9121;50.926;5.340;2023-08-17T14:43:09;33.97;;;21.65;;
17991;SDS011;9121;50.926;5.340;2023-08-17T14:45:38;32.80;;;19.50;;
17991;SDS011;9121;50.926;5.340;2023-08-17T14:48:06;34.58;;;22.73;;
17991;SDS011;9121;50.926;5.340;2023-08-17T14:50:33;37.13;;;22.75;;
17991;SDS011;9121;50.926;5.340;2023-08-17T14:53:00;38.60;;;23.50;;